^^
Meteo Knjazevac Station Historical Data
Daily Summary for May 28, 2022 Units:  Metric    English   Both
Daily Weekly Monthly Yearly Custom
  High: Low: Average:
Temperature: 26.2 °C 16.6 °C 18.8 °C
Dew Point: 19.4 °C 13.7 °C 16.5 °C
Humidity: 98% 64% 87%
Wind Speed: 14.5km/h 0km/h 3.7km/h
Wind Gust: 33.8km/h - -
Wind- - SSW
Pressure: 1017.8 hPa 1014.1 hPa -
Precipitation: 6.6 mm    
Historical Graphs
 
 
Tabular Data for May 28, 2022
Time Temperature Dew Point Pressure Wind Wind Speed Wind Gust Humidity Rainfall Rate (Hourly) solar Conditions
00:00 17.7 °C 13.8 °C 1015.8 hPa West 3.2 km/h 6.4 km/h 78% 0 mm 0 W/m2
00:10 17.6 °C 13.9 °C 1015.8 hPa West 3.2 km/h 6.4 km/h 79% 0 mm 0 W/m2
00:20 17.5 °C 13.8 °C 1015.8 hPa West 3.2 km/h 9.7 km/h 79% 0 mm 0 W/m2
00:30 17.4 °C 13.7 °C 1015.5 hPa West 3.2 km/h 9.7 km/h 79% 0 mm 0 W/m2
00:40 17.3 °C 13.8 °C 1015.8 hPa West 11.3 km/h 17.7 km/h 80% 0 mm 0 W/m2
00:50 17.6 °C 13.9 °C 1015.5 hPa West 4.8 km/h 19.3 km/h 79% 0 mm 0 W/m2
01:00 17.6 °C 14.1 °C 1015.5 hPa ESE 3.2 km/h 9.7 km/h 80% 0 mm 0 W/m2
01:10 18.1 °C 14.6 °C 1016.5 hPa WSW 8 km/h 19.3 km/h 80% 0 mm 0 W/m2
01:20 18.6 °C 15.8 °C 1017.5 hPa SW 14.5 km/h 27.4 km/h 84% 1.52 mm 0 W/m2
01:30 18.1 °C 15.7 °C 1017.8 hPa WSW 11.3 km/h 33.8 km/h 86% 1.52 mm 0 W/m2
01:40 17.8 °C 15.8 °C 1017.2 hPa SSW 1.6 km/h 20.9 km/h 88% 0.76 mm 0 W/m2
01:50 17.6 °C 15.9 °C 1017.2 hPa NE 8 km/h 12.9 km/h 90% 0.51 mm 0 W/m2
02:00 17.3 °C 15.7 °C 1017.2 hPa NNE 11.3 km/h 17.7 km/h 90% 0.25 mm 0 W/m2
02:10 17.3 °C 15.8 °C 1016.1 hPa East 8 km/h 14.5 km/h 91% 0.51 mm 0 W/m2
02:20 17.1 °C 15.9 °C 1015.8 hPa ENE 4.8 km/h 20.9 km/h 93% 0.51 mm 0 W/m2
02:30 17.1 °C 15.6 °C 1015.8 hPa SSE 4.8 km/h 14.5 km/h 91% 0.51 mm 0 W/m2
02:40 17 °C 15.5 °C 1015.5 hPa South 4.8 km/h 9.7 km/h 91% 0.25 mm 0 W/m2
02:50 16.9 °C 15.4 °C 1015.8 hPa SW 3.2 km/h 12.9 km/h 91% 0.25 mm 0 W/m2
03:00 16.9 °C 15.4 °C 1015.5 hPa SSW 3.2 km/h 12.9 km/h 91% 0.25 mm 0 W/m2
03:10 17 °C 15.5 °C 1015.5 hPa SSW 4.8 km/h 9.7 km/h 91% 0.51 mm 0 W/m2
03:20 16.9 °C 15.4 °C 1015.1 hPa SW 4.8 km/h 11.3 km/h 91% 0.25 mm 0 W/m2
03:30 16.8 °C 15.3 °C 1015.1 hPa SW 4.8 km/h 11.3 km/h 91% 0 mm 0 W/m2
03:40 16.8 °C 15.3 °C 1015.5 hPa SW 4.8 km/h 11.3 km/h 91% 0 mm 0 W/m2
03:50 16.8 °C 15.7 °C 1015.1 hPa ESE 3.2 km/h 8 km/h 93% 0 mm 0 W/m2
04:00 16.8 °C 15.8 °C 1015.5 hPa South 3.2 km/h 8 km/h 94% 0 mm 0 W/m2
04:10 16.6 °C 15.9 °C 1016.5 hPa West 4.8 km/h 19.3 km/h 96% 0 mm 0 W/m2
04:20 16.6 °C 15.9 °C 1016.8 hPa NNW 3.2 km/h 11.3 km/h 96% 0 mm 0 W/m2
04:30 16.7 °C 15.9 °C 1016.8 hPa Calm   9.7 km/h 95% 0 mm 0 W/m2
04:40 16.8 °C 16 °C 1016.5 hPa NE 4.8 km/h 9.7 km/h 95% 0 mm 0 W/m2
04:50 16.8 °C 16.2 °C 1016.1 hPa SE 3.2 km/h 9.7 km/h 96% 0 mm 0 W/m2
05:00 16.8 °C 16.2 °C 1016.1 hPa SE 4.8 km/h 9.7 km/h 96% 0 mm 1 W/m2
05:10 16.7 °C 16.1 °C 1015.8 hPa South 3.2 km/h 9.7 km/h 96% 0 mm 5 W/m2
05:20 16.6 °C 15.8 °C 1016.1 hPa SSW 4.8 km/h 11.3 km/h 95% 0 mm 4 W/m2
05:30 16.7 °C 15.7 °C 1015.8 hPa SSW 1.6 km/h 9.7 km/h 94% 0 mm 8 W/m2
05:40 16.7 °C 15.9 °C 1015.5 hPa West 1.6 km/h 6.4 km/h 95% 0 mm 10 W/m2
05:50 16.6 °C 15.8 °C 1015.8 hPa SW 4.8 km/h 8 km/h 95% 0 mm 9 W/m2
06:00 16.6 °C 15.9 °C 1015.5 hPa South 1.6 km/h 9.7 km/h 96% 0.51 mm 12 W/m2
06:10 16.6 °C 15.9 °C 1015.5 hPa NW 3.2 km/h 4.8 km/h 96% 0 mm 19 W/m2
06:20 16.6 °C 16.3 °C 1015.5 hPa North 1.6 km/h 8 km/h 98% 0 mm 41 W/m2
06:30 16.7 °C 16.4 °C 1015.1 hPa West 3.2 km/h 4.8 km/h 98% 0 mm 75 W/m2
06:40 16.8 °C 16.5 °C 1015.1 hPa Calm   6.4 km/h 98% 0 mm 72 W/m2
06:50 16.9 °C 16.3 °C 1015.5 hPa NE 3.2 km/h 8 km/h 96% 0 mm 48 W/m2
07:00 16.9 °C 16.1 °C 1015.5 hPa Calm   9.7 km/h 95% 0 mm 74 W/m2
07:10 17 °C 16.2 °C 1015.5 hPa ENE 3.2 km/h 8 km/h 95% 0 mm 275 W/m2
07:20 17.1 °C 16.3 °C 1015.5 hPa ESE 1.6 km/h 8 km/h 95% 0 mm 202 W/m2
07:30 17.3 °C 16.5 °C 1015.5 hPa Calm   4.8 km/h 95% 0 mm 317 W/m2
07:40 17.6 °C 16.8 °C 1015.5 hPa ESE 3.2 km/h 8 km/h 95% 0 mm 292 W/m2
07:50 18 °C 17.2 °C 1015.5 hPa SSW 1.6 km/h 4.8 km/h 95% 0 mm 302 W/m2
08:00 18.2 °C 17.4 °C 1015.5 hPa SSW 1.6 km/h 4.8 km/h 95% 0 mm 373 W/m2
08:10 18.5 °C 17.5 °C 1015.5 hPa SSW 1.6 km/h 4.8 km/h 94% 0 mm 264 W/m2
08:20 18.8 °C 17.7 °C 1015.5 hPa Calm   3.2 km/h 93% 0 mm 368 W/m2
08:30 19.4 °C 17.9 °C 1015.5 hPa West 1.6 km/h 4.8 km/h 91% 0 mm 435 W/m2
08:40 19.9 °C 18.2 °C 1015.5 hPa West 1.6 km/h 8 km/h 90% 0 mm 553 W/m2
08:50 20.5 °C 18.4 °C 1015.5 hPa West 3.2 km/h 8 km/h 88% 0 mm 594 W/m2
09:00 21 °C 18.4 °C 1015.5 hPa WSW 1.6 km/h 8 km/h 85% 0 mm 479 W/m2
09:10 21.4 °C 18.4 °C 1015.1 hPa SW 4.8 km/h 6.4 km/h 83% 0 mm 591 W/m2
09:20 21.8 °C 18.4 °C 1015.1 hPa Calm   6.4 km/h 81% 0 mm 670 W/m2
09:30 22.4 °C 18.8 °C 1015.1 hPa WSW 1.6 km/h 6.4 km/h 80% 0 mm 705 W/m2
09:40 22.9 °C 19.1 °C 1014.8 hPa SW 1.6 km/h 4.8 km/h 79% 0 mm 721 W/m2
09:50 23.2 °C 18.5 °C 1014.8 hPa South 1.6 km/h 9.7 km/h 75% 0 mm 749 W/m2
10:00 23.6 °C 18.7 °C 1014.8 hPa SE 1.6 km/h 9.7 km/h 74% 0 mm 755 W/m2
10:10 23.9 °C 18.6 °C 1014.8 hPa ESE 3.2 km/h 8 km/h 72% 0 mm 782 W/m2
10:20 24.1 °C 18.3 °C 1014.8 hPa SSE 3.2 km/h 6.4 km/h 70% 0 mm 827 W/m2
10:30 24.5 °C 19.4 °C 1014.8 hPa SW 4.8 km/h 8 km/h 73% 0 mm 847 W/m2
10:40 25 °C 19.2 °C 1014.4 hPa SW 3.2 km/h 8 km/h 70% 0 mm 273 W/m2
10:50 25.3 °C 19.2 °C 1014.4 hPa SW 3.2 km/h 8 km/h 69% 0 mm 651 W/m2
11:00 25.5 °C 18.9 °C 1014.4 hPa SSW 3.2 km/h 8 km/h 67% 0 mm 586 W/m2
11:10 25.8 °C 18.4 °C 1014.4 hPa West 1.6 km/h 6.4 km/h 64% 0 mm 489 W/m2
11:20 26.2 °C 19.1 °C 1014.1 hPa WSW 4.8 km/h 8 km/h 65% 0 mm 653 W/m2
11:30 26.2 °C 18.8 °C 1014.1 hPa West 4.8 km/h 8 km/h 64% 0 mm 782 W/m2
Knjazevac, Serbia
Compliments of Weather Underground - 2 mb